sensor_id;sensor_type;location;lat;lon;timestamp;temperature;humidity
52899;DHT22;38763;53.096;6.062;2022-07-21T00:01:17;20.60;99.90
52899;DHT22;38763;53.096;6.062;2022-07-21T00:03:43;20.50;99.90
52899;DHT22;38763;53.096;6.062;2022-07-21T00:06:08;20.50;99.90
52899;DHT22;38763;53.096;6.062;2022-07-21T00:08:34;20.40;99.90
52899;DHT22;38763;53.096;6.062;2022-07-21T00:11:00;20.40;99.90
52899;DHT22;38763;53.096;6.062;2022-07-21T00:13:26;20.40;99.90
52899;DHT22;38763;53.096;6.062;2022-07-21T00:15:52;20.40;99.90
52899;DHT22;38763;53.096;6.062;2022-07-21T00:18:19;20.40;99.90
52899;DHT22;38763;53.096;6.062;2022-07-21T00:20:45;20.40;99.90
52899;DHT22;38763;53.096;6.062;2022-07-21T00:23:10;20.30;99.90
52899;DHT22;38763;53.096;6.062;2022-07-21T00:25:36;20.30;99.90
52899;DHT22;38763;53.096;6.062;2022-07-21T00:28:03;20.30;99.90
52899;DHT22;38763;53.096;6.062;2022-07-21T00:30:29;20.30;99.90
52899;DHT22;38763;53.096;6.062;2022-07-21T00:32:55;20.30;99.90
52899;DHT22;38763;53.096;6.062;2022-07-21T00:35:20;20.30;99.90
52899;DHT22;38763;53.096;6.062;2022-07-21T00:37:46;20.40;99.90
52899;DHT22;38763;53.096;6.062;2022-07-21T00:40:12;20.30;99.90
52899;DHT22;38763;53.096;6.062;2022-07-21T00:42:39;20.40;99.90
52899;DHT22;38763;53.096;6.062;2022-07-21T00:45:06;20.30;99.90
52899;DHT22;38763;53.096;6.062;2022-07-21T00:47:32;20.20;99.90
52899;DHT22;38763;53.096;6.062;2022-07-21T00:50:01;20.30;99.90
52899;DHT22;38763;53.096;6.062;2022-07-21T00:52:27;20.30;99.90
52899;DHT22;38763;53.096;6.062;2022-07-21T00:54:53;20.20;99.90
52899;DHT22;38763;53.096;6.062;2022-07-21T00:57:19;20.20;99.90
52899;DHT22;38763;53.096;6.062;2022-07-21T00:59:45;20.20;99.90
52899;DHT22;38763;53.096;6.062;2022-07-21T01:02:10;20.20;99.90
52899;DHT22;38763;53.096;6.062;2022-07-21T01:04:36;20.20;99.90
52899;DHT22;38763;53.096;6.062;2022-07-21T01:07:03;20.10;99.90
52899;DHT22;38763;53.096;6.062;2022-07-21T01:09:29;20.20;99.90
52899;DHT22;38763;53.096;6.062;2022-07-21T01:11:55;20.10;99.90
52899;DHT22;38763;53.096;6.062;2022-07-21T01:14:21;20.10;99.90
52899;DHT22;38763;53.096;6.062;2022-07-21T01:16:47;20.00;99.90
52899;DHT22;38763;53.096;6.062;2022-07-21T01:19:12;20.00;99.90
52899;DHT22;38763;53.096;6.062;2022-07-21T01:21:40;20.00;99.90
52899;DHT22;38763;53.096;6.062;2022-07-21T01:24:07;20.00;99.90
52899;DHT22;38763;53.096;6.062;2022-07-21T01:26:44;20.10;99.90
52899;DHT22;38763;53.096;6.062;2022-07-21T01:29:11;20.10;99.90
52899;DHT22;38763;53.096;6.062;2022-07-21T01:31:39;20.00;99.90
52899;DHT22;38763;53.096;6.062;2022-07-21T01:34:06;20.00;99.90
52899;DHT22;38763;53.096;6.062;2022-07-21T01:36:32;19.90;99.90
52899;DHT22;38763;53.096;6.062;2022-07-21T01:38:58;20.00;99.90
52899;DHT22;38763;53.096;6.062;2022-07-21T01:41:42;19.90;99.90
52899;DHT22;38763;53.096;6.062;2022-07-21T01:44:10;19.90;99.90
52899;DHT22;38763;53.096;6.062;2022-07-21T01:46:41;19.80;99.90
52899;DHT22;38763;53.096;6.062;2022-07-21T01:49:10;19.80;99.90
52899;DHT22;38763;53.096;6.062;2022-07-21T01:51:36;19.80;99.90
52899;DHT22;38763;53.096;6.062;2022-07-21T01:54:01;19.80;99.90
52899;DHT22;38763;53.096;6.062;2022-07-21T01:56:28;19.70;99.90
52899;DHT22;38763;53.096;6.062;2022-07-21T01:58:55;19.80;99.90
52899;DHT22;38763;53.096;6.062;2022-07-21T02:01:23;19.80;99.90
52899;DHT22;38763;53.096;6.062;2022-07-21T02:03:49;19.80;99.90
52899;DHT22;38763;53.096;6.062;2022-07-21T02:06:15;19.70;99.90
52899;DHT22;38763;53.096;6.062;2022-07-21T02:08:41;19.80;99.90
52899;DHT22;38763;53.096;6.062;2022-07-21T02:11:11;19.70;99.90
52899;DHT22;38763;53.096;6.062;2022-07-21T02:13:37;19.70;99.90
52899;DHT22;38763;53.096;6.062;2022-07-21T02:16:03;19.70;99.90
52899;DHT22;38763;53.096;6.062;2022-07-21T02:18:29;19.70;99.90
52899;DHT22;38763;53.096;6.062;2022-07-21T02:20:55;19.70;99.90
52899;DHT22;38763;53.096;6.062;2022-07-21T02:23:23;19.80;99.90
52899;DHT22;38763;53.096;6.062;2022-07-21T02:25:49;19.80;99.90
52899;DHT22;38763;53.096;6.062;2022-07-21T02:28:15;19.70;99.90
52899;DHT22;38763;53.096;6.062;2022-07-21T02:30:41;19.70;99.90
52899;DHT22;38763;53.096;6.062;2022-07-21T02:33:07;19.70;99.90
52899;DHT22;38763;53.096;6.062;2022-07-21T02:35:33;19.70;99.90
52899;DHT22;38763;53.096;6.062;2022-07-21T02:37:58;19.60;99.90
52899;DHT22;38763;53.096;6.062;2022-07-21T02:40:24;19.60;99.90
52899;DHT22;38763;53.096;6.062;2022-07-21T02:42:50;19.70;99.90
52899;DHT22;38763;53.096;6.062;2022-07-21T02:45:16;19.70;99.90
52899;DHT22;38763;53.096;6.062;2022-07-21T02:47:55;19.70;99.90
52899;DHT22;38763;53.096;6.062;2022-07-21T02:50:23;19.70;99.90
52899;DHT22;38763;53.096;6.062;2022-07-21T02:52:49;19.60;99.90
52899;DHT22;38763;53.096;6.062;2022-07-21T02:55:15;19.60;99.90
52899;DHT22;38763;53.096;6.062;2022-07-21T02:57:41;19.60;99.90
52899;DHT22;38763;53.096;6.062;2022-07-21T03:00:08;19.70;99.90
52899;DHT22;38763;53.096;6.062;2022-07-21T03:02:35;19.60;99.90
52899;DHT22;38763;53.096;6.062;2022-07-21T03:05:00;19.60;99.90
52899;DHT22;38763;53.096;6.062;2022-07-21T03:07:26;19.60;99.90
52899;DHT22;38763;53.096;6.062;2022-07-21T03:09:52;19.70;99.90
52899;DHT22;38763;53.096;6.062;2022-07-21T03:12:17;19.60;99.90
52899;DHT22;38763;53.096;6.062;2022-07-21T03:14:43;19.70;99.90
52899;DHT22;38763;53.096;6.062;2022-07-21T03:17:09;19.60;99.90
52899;DHT22;38763;53.096;6.062;2022-07-21T03:19:34;19.60;99.90
52899;DHT22;38763;53.096;6.062;2022-07-21T03:22:00;19.50;99.90
52899;DHT22;38763;53.096;6.062;2022-07-21T03:24:26;19.50;99.90
52899;DHT22;38763;53.096;6.062;2022-07-21T03:26:51;19.50;99.90
52899;DHT22;38763;53.096;6.062;2022-07-21T03:29:17;19.60;99.90
52899;DHT22;38763;53.096;6.062;2022-07-21T03:31:43;19.60;99.90
52899;DHT22;38763;53.096;6.062;2022-07-21T03:34:08;19.60;99.90
52899;DHT22;38763;53.096;6.062;2022-07-21T03:36:34;19.60;99.90
52899;DHT22;38763;53.096;6.062;2022-07-21T03:39:00;19.70;99.90
52899;DHT22;38763;53.096;6.062;2022-07-21T03:41:25;19.60;99.90
52899;DHT22;38763;53.096;6.062;2022-07-21T03:43:51;19.50;99.90
52899;DHT22;38763;53.096;6.062;2022-07-21T03:46:16;19.60;99.90
52899;DHT22;38763;53.096;6.062;2022-07-21T03:48:42;19.60;99.90
52899;DHT22;38763;53.096;6.062;2022-07-21T03:51:07;19.60;99.90
52899;DHT22;38763;53.096;6.062;2022-07-21T03:53:35;19.60;99.90
52899;DHT22;38763;53.096;6.062;2022-07-21T03:56:00;19.60;99.90
52899;DHT22;38763;53.096;6.062;2022-07-21T03:58:26;19.70;99.90
52899;DHT22;38763;53.096;6.062;2022-07-21T04:00:52;19.60;99.90
52899;DHT22;38763;53.096;6.062;2022-07-21T04:03:18;19.60;99.90
52899;DHT22;38763;53.096;6.062;2022-07-21T04:05:43;19.60;99.90
52899;DHT22;38763;53.096;6.062;2022-07-21T04:08:10;19.70;99.90
52899;DHT22;38763;53.096;6.062;2022-07-21T04:10:37;19.60;99.90
52899;DHT22;38763;53.096;6.062;2022-07-21T04:13:06;19.70;99.90
52899;DHT22;38763;53.096;6.062;2022-07-21T04:15:32;19.60;99.90
52899;DHT22;38763;53.096;6.062;2022-07-21T04:17:58;19.60;99.90
52899;DHT22;38763;53.096;6.062;2022-07-21T04:20:24;19.50;99.90
52899;DHT22;38763;53.096;6.062;2022-07-21T04:22:50;19.50;99.90
52899;DHT22;38763;53.096;6.062;2022-07-21T04:25:17;19.40;99.90
52899;DHT22;38763;53.096;6.062;2022-07-21T04:27:43;19.30;99.90
52899;DHT22;38763;53.096;6.062;2022-07-21T04:30:11;19.40;99.90
52899;DHT22;38763;53.096;6.062;2022-07-21T04:32:37;19.30;99.90
52899;DHT22;38763;53.096;6.062;2022-07-21T04:35:04;19.30;99.90
52899;DHT22;38763;53.096;6.062;2022-07-21T04:37:30;19.30;99.90
52899;DHT22;38763;53.096;6.062;2022-07-21T04:39:55;19.30;99.90
52899;DHT22;38763;53.096;6.062;2022-07-21T04:42:21;19.40;99.90
52899;DHT22;38763;53.096;6.062;2022-07-21T04:44:47;19.30;99.90
52899;DHT22;38763;53.096;6.062;2022-07-21T04:47:13;19.30;99.90
52899;DHT22;38763;53.096;6.062;2022-07-21T04:49:39;19.40;99.90
52899;DHT22;38763;53.096;6.062;2022-07-21T04:52:04;19.30;99.90
52899;DHT22;38763;53.096;6.062;2022-07-21T04:54:30;19.30;99.90
52899;DHT22;38763;53.096;6.062;2022-07-21T04:56:56;19.30;99.90
52899;DHT22;38763;53.096;6.062;2022-07-21T04:59:21;19.30;99.90
52899;DHT22;38763;53.096;6.062;2022-07-21T05:01:47;19.30;99.90
52899;DHT22;38763;53.096;6.062;2022-07-21T05:04:13;19.20;99.90
52899;DHT22;38763;53.096;6.062;2022-07-21T05:06:38;19.20;99.90
52899;DHT22;38763;53.096;6.062;2022-07-21T05:09:04;19.30;99.90
52899;DHT22;38763;53.096;6.062;2022-07-21T05:11:29;19.30;99.90
52899;DHT22;38763;53.096;6.062;2022-07-21T05:13:55;19.20;99.90
52899;DHT22;38763;53.096;6.062;2022-07-21T05:16:21;19.30;99.90
52899;DHT22;38763;53.096;6.062;2022-07-21T05:18:47;19.20;99.90
52899;DHT22;38763;53.096;6.062;2022-07-21T05:21:13;19.20;99.90
52899;DHT22;38763;53.096;6.062;2022-07-21T05:23:38;19.20;99.90
52899;DHT22;38763;53.096;6.062;2022-07-21T05:26:04;19.20;99.90
52899;DHT22;38763;53.096;6.062;2022-07-21T05:28:30;19.20;99.90
52899;DHT22;38763;53.096;6.062;2022-07-21T05:30:55;19.20;99.90
52899;DHT22;38763;53.096;6.062;2022-07-21T05:33:21;19.20;99.90
52899;DHT22;38763;53.096;6.062;2022-07-21T05:35:47;19.20;99.90
52899;DHT22;38763;53.096;6.062;2022-07-21T05:38:12;19.10;99.90
52899;DHT22;38763;53.096;6.062;2022-07-21T05:40:38;19.20;99.90
52899;DHT22;38763;53.096;6.062;2022-07-21T05:43:04;19.10;99.90
52899;DHT22;38763;53.096;6.062;2022-07-21T05:45:29;19.10;99.90
52899;DHT22;38763;53.096;6.062;2022-07-21T05:47:55;19.10;99.90
52899;DHT22;38763;53.096;6.062;2022-07-21T05:50:21;19.10;99.90
52899;DHT22;38763;53.096;6.062;2022-07-21T05:52:46;19.00;99.90
52899;DHT22;38763;53.096;6.062;2022-07-21T05:55:12;19.10;99.90
52899;DHT22;38763;53.096;6.062;2022-07-21T05:57:38;19.00;99.90
52899;DHT22;38763;53.096;6.062;2022-07-21T06:00:04;19.00;99.90
52899;DHT22;38763;53.096;6.062;2022-07-21T06:02:30;18.90;99.90
52899;DHT22;38763;53.096;6.062;2022-07-21T06:04:57;19.00;99.90
52899;DHT22;38763;53.096;6.062;2022-07-21T06:07:22;18.90;99.90
52899;DHT22;38763;53.096;6.062;2022-07-21T06:09:48;19.00;99.90
52899;DHT22;38763;53.096;6.062;2022-07-21T06:12:14;19.00;99.90
52899;DHT22;38763;53.096;6.062;2022-07-21T06:14:40;18.90;99.90
52899;DHT22;38763;53.096;6.062;2022-07-21T06:17:05;19.00;99.90
52899;DHT22;38763;53.096;6.062;2022-07-21T06:19:31;19.10;99.90
52899;DHT22;38763;53.096;6.062;2022-07-21T06:21:57;19.00;99.90
52899;DHT22;38763;53.096;6.062;2022-07-21T06:24:24;19.10;99.90
52899;DHT22;38763;53.096;6.062;2022-07-21T06:26:52;19.20;99.90
52899;DHT22;38763;53.096;6.062;2022-07-21T06:29:23;19.20;99.90
52899;DHT22;38763;53.096;6.062;2022-07-21T06:31:49;19.20;99.90
52899;DHT22;38763;53.096;6.062;2022-07-21T06:34:15;19.30;99.90
52899;DHT22;38763;53.096;6.062;2022-07-21T06:36:41;19.30;99.90
52899;DHT22;38763;53.096;6.062;2022-07-21T06:39:06;19.40;99.90
52899;DHT22;38763;53.096;6.062;2022-07-21T06:41:32;19.50;99.90
52899;DHT22;38763;53.096;6.062;2022-07-21T06:43:58;19.50;99.90
52899;DHT22;38763;53.096;6.062;2022-07-21T06:46:24;19.50;99.90
52899;DHT22;38763;53.096;6.062;2022-07-21T06:48:50;19.60;99.90
52899;DHT22;38763;53.096;6.062;2022-07-21T06:51:16;19.70;99.90
52899;DHT22;38763;53.096;6.062;2022-07-21T06:53:41;19.80;99.90
52899;DHT22;38763;53.096;6.062;2022-07-21T06:56:08;19.80;99.90
52899;DHT22;38763;53.096;6.062;2022-07-21T06:58:33;19.80;99.90
52899;DHT22;38763;53.096;6.062;2022-07-21T07:00:59;19.80;99.90
52899;DHT22;38763;53.096;6.062;2022-07-21T07:03:25;19.90;99.90
52899;DHT22;38763;53.096;6.062;2022-07-21T07:05:51;20.00;99.90
52899;DHT22;38763;53.096;6.062;2022-07-21T07:08:16;19.90;99.90
52899;DHT22;38763;53.096;6.062;2022-07-21T07:10:43;19.90;99.90
52899;DHT22;38763;53.096;6.062;2022-07-21T07:13:10;20.00;99.90
52899;DHT22;38763;53.096;6.062;2022-07-21T07:15:36;19.90;99.90
52899;DHT22;38763;53.096;6.062;2022-07-21T07:18:01;19.90;99.90
52899;DHT22;38763;53.096;6.062;2022-07-21T07:20:27;20.00;99.90
52899;DHT22;38763;53.096;6.062;2022-07-21T07:22:53;20.00;99.90
52899;DHT22;38763;53.096;6.062;2022-07-21T07:25:18;19.90;99.90
52899;DHT22;38763;53.096;6.062;2022-07-21T07:27:49;19.90;99.90
52899;DHT22;38763;53.096;6.062;2022-07-21T07:30:15;20.00;99.90
52899;DHT22;38763;53.096;6.062;2022-07-21T07:32:41;20.00;99.90
52899;DHT22;38763;53.096;6.062;2022-07-21T07:35:11;19.90;99.90
52899;DHT22;38763;53.096;6.062;2022-07-21T07:37:41;19.90;99.90
52899;DHT22;38763;53.096;6.062;2022-07-21T07:40:13;19.80;99.90
52899;DHT22;38763;53.096;6.062;2022-07-21T07:42:39;19.80;99.90
52899;DHT22;38763;53.096;6.062;2022-07-21T07:45:06;19.80;99.90
52899;DHT22;38763;53.096;6.062;2022-07-21T07:47:32;19.90;99.90
52899;DHT22;38763;53.096;6.062;2022-07-21T07:49:58;19.90;99.90
52899;DHT22;38763;53.096;6.062;2022-07-21T07:52:24;19.80;99.90
52899;DHT22;38763;53.096;6.062;2022-07-21T07:54:50;19.80;99.90
52899;DHT22;38763;53.096;6.062;2022-07-21T07:57:16;19.80;99.90
52899;DHT22;38763;53.096;6.062;2022-07-21T07:59:42;19.80;99.90
52899;DHT22;38763;53.096;6.062;2022-07-21T08:02:07;19.70;99.90
52899;DHT22;38763;53.096;6.062;2022-07-21T08:04:33;19.70;99.90
52899;DHT22;38763;53.096;6.062;2022-07-21T08:07:01;19.70;99.90
52899;DHT22;38763;53.096;6.062;2022-07-21T08:09:26;19.70;99.90
52899;DHT22;38763;53.096;6.062;2022-07-21T08:11:52;19.70;99.90
52899;DHT22;38763;53.096;6.062;2022-07-21T08:14:18;19.70;99.90
52899;DHT22;38763;53.096;6.062;2022-07-21T08:16:43;19.70;99.90
52899;DHT22;38763;53.096;6.062;2022-07-21T08:19:09;19.70;99.90
52899;DHT22;38763;53.096;6.062;2022-07-21T08:21:35;19.70;99.90
52899;DHT22;38763;53.096;6.062;2022-07-21T08:24:01;19.80;99.90
52899;DHT22;38763;53.096;6.062;2022-07-21T08:26:27;19.70;99.90
52899;DHT22;38763;53.096;6.062;2022-07-21T08:28:56;19.70;99.90
52899;DHT22;38763;53.096;6.062;2022-07-21T08:31:23;19.70;99.90
52899;DHT22;38763;53.096;6.062;2022-07-21T08:33:50;19.60;99.90
52899;DHT22;38763;53.096;6.062;2022-07-21T08:36:16;19.60;99.90
52899;DHT22;38763;53.096;6.062;2022-07-21T08:38:42;19.60;99.90
52899;DHT22;38763;53.096;6.062;2022-07-21T08:41:08;19.60;99.90
52899;DHT22;38763;53.096;6.062;2022-07-21T08:43:34;19.60;99.90
52899;DHT22;38763;53.096;6.062;2022-07-21T08:46:00;19.60;99.90
52899;DHT22;38763;53.096;6.062;2022-07-21T08:48:26;19.70;99.90
52899;DHT22;38763;53.096;6.062;2022-07-21T08:50:53;19.70;99.90
52899;DHT22;38763;53.096;6.062;2022-07-21T08:53:19;19.70;99.90
52899;DHT22;38763;53.096;6.062;2022-07-21T08:55:45;19.70;99.90
52899;DHT22;38763;53.096;6.062;2022-07-21T08:58:12;19.70;99.90
52899;DHT22;38763;53.096;6.062;2022-07-21T09:00:40;19.70;99.90
52899;DHT22;38763;53.096;6.062;2022-07-21T09:03:18;19.70;99.90
52899;DHT22;38763;53.096;6.062;2022-07-21T09:08:36;19.70;99.90
52899;DHT22;38763;53.096;6.062;2022-07-21T09:11:10;19.70;99.90
52899;DHT22;38763;53.096;6.062;2022-07-21T09:13:36;19.80;99.90
52899;DHT22;38763;53.096;6.062;2022-07-21T09:16:02;19.60;99.90
52899;DHT22;38763;53.096;6.062;2022-07-21T09:18:28;19.70;99.90
52899;DHT22;38763;53.096;6.062;2022-07-21T09:20:54;19.80;99.90
52899;DHT22;38763;53.096;6.062;2022-07-21T09:23:22;19.80;99.90
52899;DHT22;38763;53.096;6.062;2022-07-21T09:25:53;19.90;99.90
52899;DHT22;38763;53.096;6.062;2022-07-21T09:28:22;19.90;99.90
52899;DHT22;38763;53.096;6.062;2022-07-21T09:36:01;20.00;99.90
52899;DHT22;38763;53.096;6.062;2022-07-21T09:38:30;20.00;99.90
52899;DHT22;38763;53.096;6.062;2022-07-21T09:41:04;20.10;99.90
52899;DHT22;38763;53.096;6.062;2022-07-21T09:48:38;20.00;99.90
52899;DHT22;38763;53.096;6.062;2022-07-21T09:51:20;20.10;99.90
52899;DHT22;38763;53.096;6.062;2022-07-21T09:53:55;20.20;99.90
52899;DHT22;38763;53.096;6.062;2022-07-21T09:56:22;20.10;99.90
52899;DHT22;38763;53.096;6.062;2022-07-21T09:58:50;20.20;99.90
52899;DHT22;38763;53.096;6.062;2022-07-21T10:01:16;20.10;99.90
52899;DHT22;38763;53.096;6.062;2022-07-21T10:03:46;20.30;99.90
52899;DHT22;38763;53.096;6.062;2022-07-21T10:06:15;20.30;99.90
52899;DHT22;38763;53.096;6.062;2022-07-21T10:08:41;20.40;99.90
52899;DHT22;38763;53.096;6.062;2022-07-21T10:11:08;20.60;99.90
52899;DHT22;38763;53.096;6.062;2022-07-21T10:13:34;20.60;99.90
52899;DHT22;38763;53.096;6.062;2022-07-21T10:16:00;20.60;99.90
52899;DHT22;38763;53.096;6.062;2022-07-21T10:18:27;20.70;99.90
52899;DHT22;38763;53.096;6.062;2022-07-21T10:21:01;20.80;99.90
52899;DHT22;38763;53.096;6.062;2022-07-21T10:23:42;21.00;99.90
52899;DHT22;38763;53.096;6.062;2022-07-21T10:26:09;21.00;99.90
52899;DHT22;38763;53.096;6.062;2022-07-21T10:28:36;21.00;99.90
52899;DHT22;38763;53.096;6.062;2022-07-21T10:31:16;21.00;99.90
52899;DHT22;38763;53.096;6.062;2022-07-21T10:36:56;20.90;99.90
52899;DHT22;38763;53.096;6.062;2022-07-21T10:41:39;20.80;99.90
52899;DHT22;38763;53.096;6.062;2022-07-21T10:44:45;20.70;99.90
52899;DHT22;38763;53.096;6.062;2022-07-21T10:47:19;20.70;99.90
52899;DHT22;38763;53.096;6.062;2022-07-21T10:49:55;20.70;99.90
52899;DHT22;38763;53.096;6.062;2022-07-21T10:55:20;20.70;99.90
52899;DHT22;38763;53.096;6.062;2022-07-21T10:58:12;20.70;99.90
52899;DHT22;38763;53.096;6.062;2022-07-21T11:00:44;20.80;99.90
52899;DHT22;38763;53.096;6.062;2022-07-21T11:03:30;20.80;99.90
52899;DHT22;38763;53.096;6.062;2022-07-21T11:08:35;20.90;99.90
52899;DHT22;38763;53.096;6.062;2022-07-21T11:11:15;21.00;99.90
52899;DHT22;38763;53.096;6.062;2022-07-21T11:14:04;21.00;99.90
52899;DHT22;38763;53.096;6.062;2022-07-21T11:22:01;21.30;99.90
52899;DHT22;38763;53.096;6.062;2022-07-21T11:24:27;21.30;99.90
52899;DHT22;38763;53.096;6.062;2022-07-21T11:27:02;21.40;99.90
52899;DHT22;38763;53.096;6.062;2022-07-21T11:29:28;21.30;99.90
52899;DHT22;38763;53.096;6.062;2022-07-21T11:31:55;21.30;99.90
52899;DHT22;38763;53.096;6.062;2022-07-21T11:34:22;21.40;99.90
52899;DHT22;38763;53.096;6.062;2022-07-21T11:36:58;21.60;99.90
52899;DHT22;38763;53.096;6.062;2022-07-21T11:39:25;21.60;99.90
52899;DHT22;38763;53.096;6.062;2022-07-21T11:41:51;21.80;99.90
52899;DHT22;38763;53.096;6.062;2022-07-21T11:44:24;21.60;99.90
52899;DHT22;38763;53.096;6.062;2022-07-21T11:46:52;21.60;99.90
52899;DHT22;38763;53.096;6.062;2022-07-21T11:49:18;21.40;99.90
52899;DHT22;38763;53.096;6.062;2022-07-21T11:52:11;21.10;99.90
52899;DHT22;38763;53.096;6.062;2022-07-21T11:54:48;21.00;99.90
52899;DHT22;38763;53.096;6.062;2022-07-21T11:57:16;20.80;99.90
52899;DHT22;38763;53.096;6.062;2022-07-21T11:59:43;20.70;99.90
52899;DHT22;38763;53.096;6.062;2022-07-21T12:02:17;20.70;99.90
52899;DHT22;38763;53.096;6.062;2022-07-21T12:04:57;20.70;99.90
52899;DHT22;38763;53.096;6.062;2022-07-21T12:07:41;20.70;99.90
52899;DHT22;38763;53.096;6.062;2022-07-21T12:10:20;20.90;99.90
52899;DHT22;38763;53.096;6.062;2022-07-21T12:12:48;20.70;99.90
52899;DHT22;38763;53.096;6.062;2022-07-21T12:15:24;20.70;99.90
52899;DHT22;38763;53.096;6.062;2022-07-21T12:17:58;20.70;99.90
52899;DHT22;38763;53.096;6.062;2022-07-21T12:22:50;20.70;99.90
52899;DHT22;38763;53.096;6.062;2022-07-21T12:25:18;20.80;99.90
52899;DHT22;38763;53.096;6.062;2022-07-21T12:27:46;20.90;99.90
52899;DHT22;38763;53.096;6.062;2022-07-21T12:30:39;21.00;99.90
52899;DHT22;38763;53.096;6.062;2022-07-21T12:35:40;20.90;99.90
52899;DHT22;38763;53.096;6.062;2022-07-21T12:38:15;21.00;99.90
52899;DHT22;38763;53.096;6.062;2022-07-21T12:40:47;21.10;99.90
52899;DHT22;38763;53.096;6.062;2022-07-21T12:43:18;21.10;99.90
52899;DHT22;38763;53.096;6.062;2022-07-21T12:45:59;21.10;99.90
52899;DHT22;38763;53.096;6.062;2022-07-21T12:48:29;21.00;99.90
52899;DHT22;38763;53.096;6.062;2022-07-21T12:51:01;21.00;99.90
52899;DHT22;38763;53.096;6.062;2022-07-21T12:53:27;20.90;99.90
52899;DHT22;38763;53.096;6.062;2022-07-21T12:55:53;20.90;99.90
52899;DHT22;38763;53.096;6.062;2022-07-21T12:58:18;21.00;99.90
52899;DHT22;38763;53.096;6.062;2022-07-21T13:00:44;21.00;99.90
52899;DHT22;38763;53.096;6.062;2022-07-21T13:03:10;21.00;99.90
52899;DHT22;38763;53.096;6.062;2022-07-21T13:05:36;21.00;99.90
52899;DHT22;38763;53.096;6.062;2022-07-21T13:08:01;20.90;99.90
52899;DHT22;38763;53.096;6.062;2022-07-21T13:10:27;20.90;99.90
52899;DHT22;38763;53.096;6.062;2022-07-21T13:12:54;20.80;99.90
52899;DHT22;38763;53.096;6.062;2022-07-21T13:15:19;20.70;99.90
52899;DHT22;38763;53.096;6.062;2022-07-21T13:17:45;20.70;99.90
52899;DHT22;38763;53.096;6.062;2022-07-21T13:20:11;20.60;99.90
52899;DHT22;38763;53.096;6.062;2022-07-21T13:22:37;20.50;99.90
52899;DHT22;38763;53.096;6.062;2022-07-21T13:25:04;20.40;99.90
52899;DHT22;38763;53.096;6.062;2022-07-21T13:27:30;20.40;99.90
52899;DHT22;38763;53.096;6.062;2022-07-21T13:29:55;20.40;99.90
52899;DHT22;38763;53.096;6.062;2022-07-21T13:32:21;20.30;99.90
52899;DHT22;38763;53.096;6.062;2022-07-21T13:34:47;20.40;99.90
52899;DHT22;38763;53.096;6.062;2022-07-21T13:37:12;20.30;99.90
52899;DHT22;38763;53.096;6.062;2022-07-21T13:39:38;20.40;99.90
52899;DHT22;38763;53.096;6.062;2022-07-21T13:42:06;20.30;99.90
52899;DHT22;38763;53.096;6.062;2022-07-21T13:44:33;20.10;99.90
52899;DHT22;38763;53.096;6.062;2022-07-21T13:46:59;20.20;99.90
52899;DHT22;38763;53.096;6.062;2022-07-21T13:49:25;20.20;99.90
52899;DHT22;38763;53.096;6.062;2022-07-21T13:51:50;20.20;99.90
52899;DHT22;38763;53.096;6.062;2022-07-21T13:54:16;20.20;99.90
52899;DHT22;38763;53.096;6.062;2022-07-21T13:56:42;20.20;99.90
52899;DHT22;38763;53.096;6.062;2022-07-21T13:59:07;20.20;99.90
52899;DHT22;38763;53.096;6.062;2022-07-21T14:01:34;20.30;99.90
52899;DHT22;38763;53.096;6.062;2022-07-21T14:03:59;20.30;99.90
52899;DHT22;38763;53.096;6.062;2022-07-21T14:06:25;20.40;99.90
52899;DHT22;38763;53.096;6.062;2022-07-21T14:08:51;20.40;99.90
52899;DHT22;38763;53.096;6.062;2022-07-21T14:11:17;20.50;99.90
52899;DHT22;38763;53.096;6.062;2022-07-21T14:13:43;20.60;99.90
52899;DHT22;38763;53.096;6.062;2022-07-21T14:16:09;20.80;99.90
52899;DHT22;38763;53.096;6.062;2022-07-21T14:18:35;20.90;99.90
52899;DHT22;38763;53.096;6.062;2022-07-21T14:21:00;21.10;99.90
52899;DHT22;38763;53.096;6.062;2022-07-21T14:23:26;21.30;99.90
52899;DHT22;38763;53.096;6.062;2022-07-21T14:25:52;21.30;99.90
52899;DHT22;38763;53.096;6.062;2022-07-21T14:28:19;21.60;99.90
52899;DHT22;38763;53.096;6.062;2022-07-21T14:30:45;21.60;99.90
52899;DHT22;38763;53.096;6.062;2022-07-21T14:33:10;21.60;99.90
52899;DHT22;38763;53.096;6.062;2022-07-21T14:35:36;21.70;99.90
52899;DHT22;38763;53.096;6.062;2022-07-21T14:38:02;21.60;99.90
52899;DHT22;38763;53.096;6.062;2022-07-21T14:40:28;21.60;99.90
52899;DHT22;38763;53.096;6.062;2022-07-21T14:42:54;21.60;99.90
52899;DHT22;38763;53.096;6.062;2022-07-21T14:45:21;21.50;99.90
52899;DHT22;38763;53.096;6.062;2022-07-21T14:47:47;21.40;99.90
52899;DHT22;38763;53.096;6.062;2022-07-21T14:50:13;21.40;99.90
52899;DHT22;38763;53.096;6.062;2022-07-21T14:52:40;21.30;99.90
52899;DHT22;38763;53.096;6.062;2022-07-21T14:55:06;21.10;99.90
52899;DHT22;38763;53.096;6.062;2022-07-21T14:57:32;21.20;99.90
52899;DHT22;38763;53.096;6.062;2022-07-21T14:59:58;21.00;99.90
52899;DHT22;38763;53.096;6.062;2022-07-21T15:02:24;21.00;99.90
52899;DHT22;38763;53.096;6.062;2022-07-21T15:04:50;20.70;99.90
52899;DHT22;38763;53.096;6.062;2022-07-21T15:07:16;20.80;99.90
52899;DHT22;38763;53.096;6.062;2022-07-21T15:09:42;21.00;99.90
52899;DHT22;38763;53.096;6.062;2022-07-21T15:12:08;21.20;99.90
52899;DHT22;38763;53.096;6.062;2022-07-21T15:14:34;21.30;99.90
52899;DHT22;38763;53.096;6.062;2022-07-21T15:16:59;21.00;99.90
52899;DHT22;38763;53.096;6.062;2022-07-21T15:19:25;20.80;99.90
52899;DHT22;38763;53.096;6.062;2022-07-21T15:21:50;20.80;99.90
52899;DHT22;38763;53.096;6.062;2022-07-21T15:24:16;20.60;99.90
52899;DHT22;38763;53.096;6.062;2022-07-21T15:26:43;20.50;99.90
52899;DHT22;38763;53.096;6.062;2022-07-21T15:29:08;20.30;99.90
52899;DHT22;38763;53.096;6.062;2022-07-21T15:31:34;20.20;99.90
52899;DHT22;38763;53.096;6.062;2022-07-21T15:34:00;20.10;99.90
52899;DHT22;38763;53.096;6.062;2022-07-21T15:36:26;20.10;99.90
52899;DHT22;38763;53.096;6.062;2022-07-21T15:38:52;20.10;99.90
52899;DHT22;38763;53.096;6.062;2022-07-21T15:41:18;19.80;99.90
52899;DHT22;38763;53.096;6.062;2022-07-21T15:43:44;19.70;99.90
52899;DHT22;38763;53.096;6.062;2022-07-21T15:46:10;19.60;99.90
52899;DHT22;38763;53.096;6.062;2022-07-21T15:48:36;19.60;99.90
52899;DHT22;38763;53.096;6.062;2022-07-21T15:51:01;19.40;99.90
52899;DHT22;38763;53.096;6.062;2022-07-21T15:53:28;19.30;99.90
52899;DHT22;38763;53.096;6.062;2022-07-21T15:55:54;19.10;99.90
52899;DHT22;38763;53.096;6.062;2022-07-21T15:58:20;18.90;99.90
52899;DHT22;38763;53.096;6.062;2022-07-21T16:00:46;18.90;99.90
52899;DHT22;38763;53.096;6.062;2022-07-21T16:03:12;18.80;99.90
52899;DHT22;38763;53.096;6.062;2022-07-21T16:05:38;18.60;99.90